Swansea, Tasmania

12:43 AM AEDT on February 11, 2016 (GMT +1100)
The Grange Hills Swansea | | Change Station
CLOSE
Current Station
Personal Weather Station
Location: Swansea, TASMANIA
Elevation: 79 ft
Nearby Weather Stations

Elev 79 ft 42.04 °S, 148.08 °E | Updated 1 minute ago

Mostly Cloudy
Mostly Cloudy
64.0 °F
Feels Like 64.0 °F
N
0.0
Wind Variable Wind from SSW
Gusts 0.0 mph

Today
High -- | Low -- °F
--% Chance of Precip.
Yesterday
High -- | Low -- °F
Precip. -- in
Pressure 29.92 in
Visibility 6.2 miles
Clouds Few 1100 ft
Mostly Cloudy 5700 ft
Dew Point 62 °F
Humidity 94%
Rainfall in
Snow Depth Not available.
6:23 AM 8:19 PM
Waxing Crescent, 5% visible
METAR YMHB 101330Z 16010KT 9999 FEW011 BKN057 17/14 Q1013
Pressure 29.92 in
Visibility 6.2 miles
Clouds Few 1100 ft
Mostly Cloudy 5700 ft
Dew Point 62 °F
Humidity 94%
Rainfall in
Snow Depth Not available.
6:23 AM 8:19 PM
Waxing Crescent, 5% visible
METAR YMHB 101330Z 16010KT 9999 FEW011 BKN057 17/14 Q1013

10-Day Weather Forecast

Almanac

Astronomy

Feb. 11, 2016 Rise Set
Actual Time
Civil Twilight
Nautical Twilight
Astronomical Twilight
Moon
Length of Visible Light
Length of Day
Tomorrow will be .
, % of the Moon is Illuminated

Today's Extremes

Country Highs Country Lows

Community

WunderPhotos

Upload Photos

1,891,845 photos uploaded!

WunderBlog® & News

Nearby

Air Quality

  Air Quality AQ Index Pollutant
Not available.

Snow Depth

Station Depth Elevation

Earthquake Activity

City Distance Mag. Time & Date
Minimum magnitude displayed is 2.5.

Coastal Water Temperatures

Place Temperature

Stations

Nearby Weather Stations

Station Location Temp. Windchill Dew Point Humidity Wind Precip. Elev Updated Type